Time;durP1;ratioP1;P1;durP2;ratioP2;P2;SDS_P1;SDS_P2;PMS_P1;PMS_P2;Temp;Humidity;BMP_temperature;BMP_pressure;BME280_temperature;BME280_humidity;BME280_pressure;Samples;Min_cycle;Max_cycle;Signal;HPM_P1;HPM_P2
2022/01/26 00:00:08;;;;;;;1999.90;999.90;;;;;;;2.70;100.00;163116.28;4959292;28;20055;-68
2022/01/26 00:08:06;;;;;;;1999.90;999.90;;;;;;;2.39;100.00;163035.47;4959496;28;20069;-69
2022/01/26 00:10:34;;;;;;;1999.90;999.90;;;;;;;1.93;100.00;162912.22;4962231;28;20047;-69
2022/01/26 00:13:00;;;;;;;1999.90;999.90;;;;;;;2.10;100.00;162958.78;4957799;28;20066;-69
2022/01/26 00:15:29;;;;;;;1999.90;999.90;;;;;;;1.94;100.00;162916.31;4958608;28;20121;-69
2022/01/26 00:17:57;;;;;;;1999.90;999.90;;;;;;;2.06;100.00;162947.81;4960678;28;20607;-69
2022/01/26 00:20:34;;;;;;;1999.90;999.90;;;;;;;2.18;100.00;162977.97;4958628;28;20054;-69
2022/01/26 00:23:18;;;;;;;1999.90;999.90;;;;;;;2.78;100.00;163139.59;4959219;28;20119;-69
2022/01/26 00:26:00;;;;;;;1999.90;999.90;;;;;;;2.88;100.00;163165.59;4960164;28;20047;-68
2022/01/26 00:28:36;;;;;;;1999.90;999.90;;;;;;;2.71;100.00;163120.41;4958731;28;20051;-69
2022/01/26 00:31:59;;;;;;;1999.90;999.90;;;;;;;2.28;100.00;163005.34;4959116;28;20069;-69
2022/01/26 00:39:29;;;;;;;1999.90;999.90;;;;;;;2.70;100.00;163117.66;4957484;28;20439;-67
2022/01/26 00:41:58;;;;;;;1999.90;999.90;;;;;;;2.60;100.00;163090.25;4956855;28;20432;-67
2022/01/26 00:44:33;;;;;;;1999.90;999.90;;;;;;;2.99;100.00;163194.34;4959596;28;20050;-68
2022/01/26 00:47:00;;;;;;;1999.90;999.90;;;;;;;3.14;100.00;163235.50;4957309;28;20410;-68
2022/01/26 00:49:27;;;;;;;1999.90;999.90;;;;;;;3.15;100.00;163236.84;4957989;28;20055;-68
2022/01/26 00:51:54;;;;;;;1999.90;999.90;;;;;;;2.84;100.00;163153.28;4957627;28;20050;-68
2022/01/26 00:54:21;;;;;;;1999.90;999.90;;;;;;;2.84;100.00;163154.63;4956257;28;20054;-68
2022/01/26 00:56:48;;;;;;;1999.90;999.90;;;;;;;2.66;100.00;163106.69;4957518;28;20054;-68
2022/01/26 00:59:15;;;;;;;1999.90;999.90;;;;;;;2.86;100.00;163160.13;4957098;28;20078;-68
2022/01/26 01:01:41;;;;;;;1999.90;999.90;;;;;;;2.68;100.00;163112.19;4957109;28;20074;-69
2022/01/26 01:04:08;;;;;;;1999.90;999.90;;;;;;;2.25;100.00;162997.16;4957971;28;20053;-68
2022/01/26 01:06:44;;;;;;;1999.90;999.90;;;;;;;2.69;100.00;163113.53;4958420;28;20969;-68
2022/01/26 01:09:11;;;;;;;1999.90;999.90;;;;;;;2.81;100.00;163146.41;4955797;28;20684;-68
2022/01/26 01:11:37;;;;;;;1999.90;999.90;;;;;;;2.98;100.00;163193.00;4958039;28;20066;-68
2022/01/26 01:14:04;;;;;;;1999.90;999.90;;;;;;;2.74;100.00;163128.63;4957011;28;20082;-68
2022/01/26 01:16:30;;;;;;;1999.90;999.90;;;;;;;2.45;100.00;163050.53;4956863;28;20270;-68
2022/01/26 01:26:54;;;;;;;1999.90;999.90;;;;;;;3.15;100.00;163238.19;4959752;28;20113;-69
2022/01/26 01:31:52;;;;;;;1999.90;999.90;;;;;;;2.85;100.00;163157.38;4960319;28;20471;-69
2022/01/26 01:34:22;;;;;;;1999.90;999.90;;;;;;;2.87;100.00;163161.47;4961075;28;20455;-69
2022/01/26 01:36:51;;;;;;;1999.90;999.90;;;;;;;2.68;100.00;163112.19;4961480;28;20050;-69
2022/01/26 01:39:19;;;;;;;1999.90;999.90;;;;;;;2.85;100.00;163156.03;4959726;28;20125;-69
2022/01/26 01:41:48;;;;;;;1999.90;999.90;;;;;;;2.43;100.00;163046.41;4959681;28;20121;-69
2022/01/26 01:44:16;;;;;;;1999.90;999.90;;;;;;;2.59;100.00;163087.50;4961079;28;20137;-69
2022/01/26 01:46:43;;;;;;;1999.90;999.90;;;;;;;2.40;100.00;163036.84;4960627;28;20110;-69
2022/01/26 01:49:12;;;;;;;1999.90;999.90;;;;;;;2.32;100.00;163016.28;4960865;28;20074;-69
2022/01/26 01:51:48;;;;;;;1999.90;999.90;;;;;;;2.49;100.00;163060.09;4961394;28;20052;-69
2022/01/26 01:54:17;;;;;;;1999.90;999.90;;;;;;;2.58;100.00;163084.78;4959589;28;20121;-69
2022/01/26 01:56:49;;;;;;;1999.90;999.90;;;;;;;2.54;100.00;163075.16;4960712;28;20788;-69
2022/01/26 01:59:15;;;;;;;1999.90;999.90;;;;;;;3.01;100.00;163199.88;4960314;28;20074;-69
2022/01/26 02:01:42;;;;;;;1999.90;999.90;;;;;;;2.97;100.00;163188.88;4960589;28;20583;-69
2022/01/26 02:04:09;;;;;;;1999.90;999.90;;;;;;;2.95;100.00;163183.44;4959933;28;20113;-69
2022/01/26 02:06:36;;;;;;;1999.90;999.90;;;;;;;2.99;100.00;163195.75;4960932;28;20078;-69
2022/01/26 02:09:03;;;;;;;1999.90;999.90;;;;;;;2.89;100.00;163166.94;4959727;28;20047;-69
2022/01/26 02:11:30;;;;;;;1999.90;999.90;;;;;;;3.21;100.00;163253.28;4961965;28;20051;-69
2022/01/26 02:14:04;;;;;;;1999.90;999.90;;;;;;;3.31;100.00;163279.34;4961259;28;20074;-69
2022/01/26 02:49:11;;;;;;;1999.90;999.90;;;;;;;2.75;100.00;163129.97;4960756;28;20038;-67
2022/01/26 02:49:47;;;;;;;1999.90;999.90;;;;;;;2.82;100.00;163149.16;4959208;28;20415;-67
2022/01/26 02:55:15;;;;;;;1999.90;999.90;;;;;;;3.21;100.00;163251.91;4960501;28;20051;-68
2022/01/26 02:58:01;;;;;;;1999.90;999.90;;;;;;;2.93;100.00;163177.91;4960266;28;20542;-68
2022/01/26 03:00:40;;;;;;;1999.90;999.90;;;;;;;3.12;100.00;163228.63;4961180;28;20058;-68
2022/01/26 03:03:15;;;;;;;1999.90;999.90;;;;;;;3.06;100.00;163213.53;4959516;28;20669;-68
2022/01/26 03:05:51;;;;;;;1999.90;999.90;;;;;;;3.02;100.00;163201.22;4959707;28;20372;-68
2022/01/26 03:08:26;;;;;;;1999.90;999.90;;;;;;;2.93;100.00;163177.91;4960404;28;20133;-68
2022/01/26 03:10:56;;;;;;;1999.90;999.90;;;;;;;3.01;100.00;163199.88;4960851;28;20533;-68
2022/01/26 03:13:30;;;;;;;1999.90;999.90;;;;;;;2.92;100.00;163176.56;4958990;28;20117;-68
2022/01/26 03:16:03;;;;;;;1999.90;999.90;;;;;;;2.74;100.00;163128.63;4959938;28;20051;-68
2022/01/26 03:18:52;;;;;;;1999.90;999.90;;;;;;;2.78;100.00;163139.59;4959488;28;20462;-68
2022/01/26 03:21:25;;;;;;;1999.90;999.90;;;;;;;2.33;100.00;163019.03;4957885;28;20444;-68
2022/01/26 03:30:32;;;;;;;1999.90;999.90;;;;;;;2.82;100.00;163150.50;4959234;28;20462;-68
2022/01/26 03:34:52;;;;;;;1999.90;999.90;;;;;;;2.96;100.00;163187.53;4960118;28;20552;-69
2022/01/26 03:37:21;;;;;;;1999.90;999.90;;;;;;;2.69;100.00;163114.91;4959578;28;20117;-68
2022/01/26 03:39:50;;;;;;;1999.90;999.90;;;;;;;2.76;100.00;163134.09;4957088;28;20462;-68
2022/01/26 03:42:17;;;;;;;1999.90;999.90;;;;;;;2.87;100.00;163161.47;4957647;28;20393;-68
2022/01/26 03:44:43;;;;;;;1999.90;999.90;;;;;;;2.84;100.00;163153.28;4958221;28;20101;-69
2022/01/26 03:47:11;;;;;;;1999.90;999.90;;;;;;;3.10;100.00;163223.16;4958257;28;20058;-68
2022/01/26 03:49:38;;;;;;;1999.90;999.90;;;;;;;3.11;100.00;163225.88;4958678;28;20059;-68
2022/01/26 03:52:05;;;;;;;1999.90;999.90;;;;;;;2.69;100.00;163113.53;4958422;28;21760;-68
2022/01/26 03:54:32;;;;;;;1999.90;999.90;;;;;;;2.69;100.00;163114.91;4957173;28;20070;-68
2022/01/26 03:56:59;;;;;;;1999.90;999.90;;;;;;;2.98;100.00;163193.00;4959039;28;20425;-68
2022/01/26 03:59:26;;;;;;;1999.90;999.90;;;;;;;2.82;100.00;163149.16;4958168;28;20051;-68
2022/01/26 04:01:52;;;;;;;1999.90;999.90;;;;;;;3.03;100.00;163203.97;4958337;28;20400;-69
2022/01/26 04:04:19;;;;;;;1999.90;999.90;;;;;;;3.29;100.00;163273.81;4961048;28;20057;-69
2022/01/26 04:06:46;;;;;;;1999.90;999.90;;;;;;;3.37;100.00;163294.41;4958231;28;20066;-69
2022/01/26 04:09:15;;;;;;;1999.90;999.90;;;;;;;3.37;100.00;163295.78;4959374;28;20490;-69
2022/01/26 04:11:46;;;;;;;1999.90;999.90;;;;;;;3.63;100.00;163364.28;4960550;28;20054;-69
2022/01/26 04:14:17;;;;;;;1999.90;999.90;;;;;;;3.73;100.00;163391.72;4958855;28;20098;-69
2022/01/26 04:16:44;;;;;;;1999.90;999.90;;;;;;;3.84;100.00;163420.50;4959889;28;20046;-69
2022/01/26 04:19:11;;;;;;;1999.90;999.90;;;;;;;3.48;100.00;163325.94;4960503;28;20066;-69
2022/01/26 04:21:54;;;;;;;1999.90;999.90;;;;;;;3.43;100.00;163312.22;4958338;28;20133;-69
2022/01/26 04:24:27;;;;;;;1999.90;999.90;;;;;;;3.61;100.00;163358.81;4959303;28;20109;-69
2022/01/26 04:29:29;;;;;;;1999.90;999.90;;;;;;;3.22;100.00;163256.03;4959030;28;20613;-69
2022/01/26 04:31:57;;;;;;;1999.90;999.90;;;;;;;3.36;100.00;163293.00;4958681;28;20046;-69
2022/01/26 04:34:25;;;;;;;1999.90;999.90;;;;;;;3.26;100.00;163265.59;4959567;28;20479;-69
2022/01/26 04:37:02;;;;;;;1999.90;999.90;;;;;;;3.22;100.00;163254.69;4957555;28;21390;-69
2022/01/26 04:39:35;;;;;;;1999.90;999.90;;;;;;;3.56;100.00;163345.09;4959547;28;20055;-69
2022/01/26 04:42:08;;;;;;;1999.90;999.90;;;;;;;3.41;100.00;163305.34;4960215;28;20070;-69
2022/01/26 04:44:41;;;;;;;1999.90;999.90;;;;;;;3.40;100.00;163302.66;4959559;28;20096;-69
2022/01/26 04:47:09;;;;;;;1999.90;999.90;;;;;;;3.09;100.00;163221.75;4957343;28;20051;-69
2022/01/26 04:49:35;;;;;;;1999.90;999.90;;;;;;;2.91;100.00;163172.47;4957905;28;20082;-69
2022/01/26 04:52:03;;;;;;;1999.90;999.90;;;;;;;3.06;100.00;163213.53;4955200;28;20159;-69
2022/01/26 04:54:30;;;;;;;1999.90;999.90;;;;;;;3.12;100.00;163228.63;4957357;28;20082;-69
2022/01/26 04:56:57;;;;;;;1999.90;999.90;;;;;;;3.34;100.00;163287.56;4960008;28;20051;-69
2022/01/26 04:59:23;;;;;;;1999.90;999.90;;;;;;;3.34;100.00;163288.91;4956946;28;20785;-69
2022/01/26 05:01:49;;;;;;;1999.90;999.90;;;;;;;3.30;100.00;163276.56;4958134;28;20491;-69
2022/01/26 05:04:16;;;;;;;1999.90;999.90;;;;;;;3.28;100.00;163272.47;4973478;28;20059;-69
2022/01/26 05:06:43;;;;;;;1999.90;999.90;;;;;;;3.10;100.00;163224.50;4958159;28;20074;-69
2022/01/26 05:09:09;;;;;;;1999.90;999.90;;;;;;;2.59;100.00;163087.50;4957487;28;20078;-69
2022/01/26 05:11:39;;;;;;;1999.90;999.90;;;;;;;2.84;100.00;163153.28;4957543;28;20675;-69
2022/01/26 05:14:06;;;;;;;1999.90;999.90;;;;;;;3.06;100.00;163213.53;4956471;28;20078;-69
2022/01/26 05:16:33;;;;;;;1999.90;999.90;;;;;;;3.26;100.00;163265.59;4958379;28;20083;-69
2022/01/26 05:19:00;;;;;;;1999.90;999.90;;;;;;;3.17;100.00;163242.31;4958106;28;20066;-69
2022/01/26 05:21:28;;;;;;;1999.90;999.90;;;;;;;3.12;100.00;163229.97;4956285;28;20578;-69
2022/01/26 05:23:55;;;;;;;1999.90;999.90;;;;;;;3.31;100.00;163279.34;4957560;28;20090;-69
2022/01/26 05:26:22;;;;;;;1999.90;999.90;;;;;;;2.91;100.00;163173.81;4955888;28;20105;-69
2022/01/26 05:28:48;;;;;;;1999.90;999.90;;;;;;;2.78;100.00;163139.59;4970513;28;20051;-69
2022/01/26 05:31:15;;;;;;;1999.90;999.90;;;;;;;3.26;100.00;163265.59;4957771;28;20121;-67
2022/01/26 05:33:42;;;;;;;1999.90;999.90;;;;;;;3.30;100.00;163276.56;4956248;28;20054;-67
2022/01/26 05:36:08;;;;;;;1999.90;999.90;;;;;;;3.11;100.00;163225.88;4957232;28;20074;-67
2022/01/26 05:38:35;;;;;;;1999.90;999.90;;;;;;;3.05;100.00;163209.44;4955800;28;20058;-68
2022/01/26 05:41:04;;;;;;;1999.90;999.90;;;;;;;2.93;100.00;163179.31;4956309;28;21425;-68
2022/01/26 05:43:34;;;;;;;1999.90;999.90;;;;;;;3.05;100.00;163209.44;4957708;28;20109;-68
2022/01/26 05:46:07;;;;;;;1999.90;999.90;;;;;;;3.16;100.00;163240.94;4957128;28;20149;-68
2022/01/26 05:48:35;;;;;;;1999.90;999.90;;;;;;;3.04;100.00;163208.06;4955562;28;20122;-67
2022/01/26 05:51:06;;;;;;;1999.90;999.90;;;;;;;3.01;100.00;163199.88;4956667;28;20079;-68
2022/01/26 05:53:34;;;;;;;1999.90;999.90;;;;;;;3.02;100.00;163201.22;4957551;28;20106;-67
2022/01/26 05:56:00;;;;;;;1999.90;999.90;;;;;;;3.04;100.00;163208.06;4957090;28;20404;-69
2022/01/26 05:58:27;;;;;;;1999.90;999.90;;;;;;;2.72;100.00;163121.75;4958438;28;20179;-67
2022/01/26 06:00:55;;;;;;;1999.90;999.90;;;;;;;2.79;100.00;163142.28;4956610;28;20125;-68
2022/01/26 06:03:21;;;;;;;1999.90;999.90;;;;;;;2.82;100.00;163149.16;4957984;28;20129;-68
2022/01/26 06:05:48;;;;;;;1999.90;999.90;;;;;;;2.68;100.00;163110.78;4956559;28;20152;-68
2022/01/26 06:08:14;;;;;;;1999.90;999.90;;;;;;;2.86;100.00;163158.72;4956537;28;20070;-68
2022/01/26 06:10:41;;;;;;;1999.90;999.90;;;;;;;2.80;100.00;163145.06;4957665;28;20051;-68
2022/01/26 06:13:07;;;;;;;1999.90;999.90;;;;;;;2.52;100.00;163068.38;4959563;28;20043;-68
2022/01/26 06:15:37;;;;;;;1999.90;999.90;;;;;;;2.50;100.00;163062.84;4959132;28;20077;-68
2022/01/26 06:18:03;;;;;;;1999.90;999.90;;;;;;;2.91;100.00;163172.47;4959481;28;20055;-69
2022/01/26 06:20:30;;;;;;;1999.90;999.90;;;;;;;2.81;100.00;163147.81;4960419;28;20070;-68
2022/01/26 06:22:56;;;;;;;1999.90;999.90;;;;;;;3.07;100.00;163216.28;4959266;28;20129;-68
2022/01/26 06:25:23;;;;;;;1999.90;999.90;;;;;;;3.08;100.00;163219.06;4961131;28;20082;-68
2022/01/26 06:27:52;;;;;;;1999.90;999.90;;;;;;;3.28;100.00;163271.13;4961471;28;20456;-68
2022/01/26 06:30:19;;;;;;;1999.90;999.90;;;;;;;3.08;100.00;163219.06;4961022;28;20077;-68
2022/01/26 06:32:47;;;;;;;1999.90;999.90;;;;;;;3.23;100.00;163257.38;4961833;28;20050;-68
2022/01/26 06:35:19;;;;;;;1999.90;999.90;;;;;;;3.34;100.00;163287.56;4961577;28;20051;-68
2022/01/26 06:37:46;;;;;;;1999.90;999.90;;;;;;;3.41;100.00;163306.75;4960521;28;20062;-68
2022/01/26 06:40:13;;;;;;;1999.90;999.90;;;;;;;3.26;100.00;163265.59;4962057;28;20112;-68
2022/01/26 06:42:52;;;;;;;1999.90;999.90;;;;;;;3.28;100.00;163271.13;4961384;28;20690;-68
2022/01/26 06:45:24;;;;;;;1999.90;999.90;;;;;;;3.37;100.00;163295.78;4960031;28;20058;-69
2022/01/26 06:50:36;;;;;;;1999.90;999.90;;;;;;;3.42;100.00;163308.09;4961604;28;20140;-69
2022/01/26 06:53:02;;;;;;;1999.90;999.90;;;;;;;3.30;100.00;163276.56;4959007;28;20864;-69
2022/01/26 06:55:29;;;;;;;1999.90;999.90;;;;;;;3.41;100.00;163305.34;4960693;28;20078;-69
2022/01/26 06:57:55;;;;;;;1999.90;999.90;;;;;;;2.96;100.00;163186.13;4960587;28;20239;-69
2022/01/26 07:00:22;;;;;;;1999.90;999.90;;;;;;;2.81;100.00;163147.81;4958649;28;20404;-69
2022/01/26 07:02:48;;;;;;;1999.90;999.90;;;;;;;2.84;100.00;163154.63;4958962;28;20046;-68
2022/01/26 07:05:19;;;;;;;1999.90;999.90;;;;;;;2.74;100.00;163127.22;4960915;28;20054;-68
2022/01/26 07:07:46;;;;;;;1999.90;999.90;;;;;;;2.58;100.00;163084.78;4958621;28;20050;-68
2022/01/26 07:10:13;;;;;;;1999.90;999.90;;;;;;;2.73;100.00;163125.88;4959271;28;20096;-68
2022/01/26 07:12:39;;;;;;;1999.90;999.90;;;;;;;2.97;100.00;163188.88;4960835;28;20431;-68
2022/01/26 07:21:22;;;;;;;1999.90;999.90;;;;;;;3.05;100.00;163209.44;4960463;28;20105;-68
2022/01/26 07:23:43;;;;;;;1999.90;999.90;;;;;;;3.26;100.00;163265.59;4959406;28;20132;-68
2022/01/26 07:26:10;;;;;;;1999.90;999.90;;;;;;;3.23;100.00;163257.38;4959971;28;20476;-68
2022/01/26 07:28:39;;;;;;;1999.90;999.90;;;;;;;3.29;100.00;163275.22;4962021;28;20141;-68
2022/01/26 07:31:08;;;;;;;1999.90;999.90;;;;;;;3.16;100.00;163240.94;4959967;28;20053;-68
2022/01/26 07:33:37;;;;;;;1999.90;999.90;;;;;;;2.94;100.00;163180.66;4959114;28;20329;-68
2022/01/26 07:36:04;;;;;;;1999.90;999.90;;;;;;;2.62;100.00;163097.09;4959191;28;20112;-68
2022/01/26 07:38:31;;;;;;;1999.90;999.90;;;;;;;2.53;100.00;163071.06;4957849;28;20081;-68
2022/01/26 07:40:58;;;;;;;1999.90;999.90;;;;;;;2.77;100.00;163135.44;4958836;28;20810;-68
2022/01/26 07:43:25;;;;;;;1999.90;999.90;;;;;;;2.85;100.00;163156.03;4960748;28;20078;-68
2022/01/26 07:45:51;;;;;;;1999.90;999.90;;;;;;;3.03;100.00;163205.31;4958820;28;20059;-68
2022/01/26 07:48:18;;;;;;;1999.90;999.90;;;;;;;3.00;100.00;163197.09;4958315;28;20054;-67
2022/01/26 07:50:45;;;;;;;1999.90;999.90;;;;;;;3.08;100.00;163217.66;4961573;28;20109;-68
2022/01/26 07:53:15;;;;;;;1999.90;999.90;;;;;;;3.11;100.00;163225.88;4958172;28;20413;-68
2022/01/26 07:55:42;;;;;;;1999.90;999.90;;;;;;;3.25;100.00;163262.91;4959807;28;20054;-68
2022/01/26 07:58:10;;;;;;;1999.90;999.90;;;;;;;3.26;100.00;163265.59;4960092;28;20076;-68
2022/01/26 08:00:37;;;;;;;1999.90;999.90;;;;;;;3.41;100.00;163306.75;4958744;28;20085;-68
2022/01/26 08:03:04;;;;;;;1999.90;999.90;;;;;;;3.67;100.00;163375.28;4960366;28;20063;-68
2022/01/26 08:05:30;;;;;;;1999.90;999.90;;;;;;;3.71;100.00;163386.25;4959390;28;20050;-68
2022/01/26 08:07:57;;;;;;;1999.90;999.90;;;;;;;3.45;100.00;163316.31;4959295;28;20050;-68
2022/01/26 08:10:24;;;;;;;1999.90;999.90;;;;;;;3.40;100.00;163302.66;4960550;28;20132;-68
2022/01/26 08:12:50;;;;;;;1999.90;999.90;;;;;;;3.72;100.00;163387.59;4959736;28;20392;-68
2022/01/26 08:15:22;;;;;;;;;;;;;;;3.07;100.00;163214.94;4958681;28;20073;-68
2022/01/26 08:17:48;;;;;;;1999.90;999.90;;;;;;;3.07;100.00;163214.94;4959030;28;19930;-68
2022/01/26 08:20:15;;;;;;;1999.90;999.90;;;;;;;3.44;100.00;163313.56;4959311;28;20399;-68
2022/01/26 08:22:42;;;;;;;1999.90;999.90;;;;;;;3.48;100.00;163325.94;4959263;28;20061;-67
2022/01/26 08:25:10;;;;;;;1999.90;999.90;;;;;;;3.41;100.00;163306.75;4960143;28;20592;-67
2022/01/26 08:27:41;;;;;;;1999.90;999.90;;;;;;;3.12;100.00;163229.97;4958691;28;20117;-67
2022/01/26 08:30:12;;;;;;;1999.90;999.90;;;;;;;3.39;100.00;163301.25;4958646;28;20086;-68
2022/01/26 08:32:39;;;;;;;1999.90;999.90;;;;;;;3.52;100.00;163336.88;4960108;28;20396;-67
2022/01/26 08:35:06;;;;;;;1999.90;999.90;;;;;;;3.65;100.00;163371.16;4957214;28;20085;-68
2022/01/26 08:37:32;;;;;;;1999.90;999.90;;;;;;;3.67;100.00;163375.28;4959020;28;20051;-68
2022/01/26 08:39:59;;;;;;;1999.90;999.90;;;;;;;3.70;100.00;163384.84;4960446;28;20128;-68
2022/01/26 08:42:26;;;;;;;1999.90;999.90;;;;;;;3.64;100.00;163367.03;4956786;28;20054;-68
2022/01/26 08:44:53;;;;;;;1999.90;999.90;;;;;;;3.51;100.00;163334.16;4958651;28;20448;-68
2022/01/26 08:47:20;;;;;;;1999.90;999.90;;;;;;;3.42;100.00;163308.09;4959599;28;20129;-68
2022/01/26 08:49:46;;;;;;;1999.90;999.90;;;;;;;3.46;100.00;163319.09;4956938;28;20082;-68
2022/01/26 08:52:13;;;;;;;1999.90;999.90;;;;;;;3.42;100.00;163308.09;4958256;28;20105;-68
2022/01/26 08:54:39;;;;;;;1999.90;999.90;;;;;;;3.00;100.00;163197.09;4958061;28;20113;-68
2022/01/26 08:57:06;;;;;;;1999.90;999.90;;;;;;;3.08;100.00;163219.06;4956122;28;20078;-68
2022/01/26 08:59:32;;;;;;;1999.90;999.90;;;;;;;3.24;100.00;163260.16;4957587;28;20062;-68
2022/01/26 09:01:59;;;;;;;1999.90;999.90;;;;;;;3.46;100.00;163320.44;4957737;28;20050;-68
2022/01/26 09:04:26;;;;;;;1999.90;999.90;;;;;;;3.52;100.00;163336.88;4958371;28;20076;-69
2022/01/26 09:06:56;;;;;;;1999.90;999.90;;;;;;;3.60;100.00;163356.06;4959214;28;20360;-69
2022/01/26 09:09:24;;;;;;;1999.90;999.90;;;;;;;3.64;100.00;163368.41;4959369;28;20058;-68
2022/01/26 09:11:51;;;;;;;1999.90;999.90;;;;;;;3.38;100.00;163298.53;4955201;28;20059;-69
2022/01/26 09:14:20;;;;;;;1999.90;999.90;;;;;;;3.34;100.00;163287.56;4956758;28;20180;-69
2022/01/26 09:16:52;;;;;;;1999.90;999.90;;;;;;;3.38;100.00;163298.53;4956794;28;20129;-69
2022/01/26 09:19:28;;;;;;;1999.90;999.90;;;;;;;3.75;100.00;163397.22;4958346;28;20065;-69
2022/01/26 09:21:57;;;;;;;1999.90;999.90;;;;;;;3.60;100.00;163356.06;4958826;28;20054;-69
2022/01/26 09:24:28;;;;;;;1999.90;999.90;;;;;;;4.00;100.00;163463.00;4958651;28;20078;-69
2022/01/26 09:26:55;;;;;;;1999.90;999.90;;;;;;;3.97;100.00;163454.78;4958299;28;20391;-70
2022/01/26 09:29:23;;;;;;;1999.90;999.90;;;;;;;3.66;100.00;163373.91;4959296;28;20062;-70
2022/01/26 09:31:50;;;;;;;1999.90;999.90;;;;;;;4.01;100.00;163465.75;4961112;28;20594;-71
2022/01/26 09:34:19;;;;;;;1999.90;999.90;;;;;;;3.62;100.00;163361.59;4958033;28;20452;-70
2022/01/26 09:36:45;;;;;;;1999.90;999.90;;;;;;;3.81;100.00;163413.66;4958524;28;20078;-69
2022/01/26 09:39:14;;;;;;;1999.90;999.90;;;;;;;2.97;100.00;163188.88;4957052;28;20463;-68
2022/01/26 09:41:41;;;;;;;1999.90;999.90;;;;;;;2.86;100.00;163158.72;4957323;28;20055;-69
2022/01/26 09:44:13;;;;;;;1999.90;999.90;;;;;;;3.39;100.00;163301.25;4959182;28;20047;-70
2022/01/26 09:46:40;;;;;;;1999.90;999.90;;;;;;;3.83;100.00;163419.13;4957469;28;20679;-67
2022/01/26 09:49:07;;;;;;;1999.90;999.90;;;;;;;3.61;100.00;163358.81;4963447;28;20051;-68
2022/01/26 09:51:43;;;;;;;1999.90;999.90;;;;;;;3.65;100.00;163369.81;4963764;28;20057;-69
2022/01/26 09:54:15;;;;;;;1999.90;999.90;;;;;;;3.68;100.00;163379.38;4961638;28;20050;-69
2022/01/26 09:56:48;;;;;;;1999.90;999.90;;;;;;;3.91;100.00;163439.69;4962023;28;20116;-69
2022/01/26 09:59:16;;;;;;;1999.90;999.90;;;;;;;4.00;100.00;163463.00;4963141;28;20114;-69
2022/01/26 10:01:46;;;;;;;1999.90;999.90;;;;;;;4.30;100.00;163543.94;4962459;28;20101;-69
2022/01/26 10:04:25;;;;;;;1999.90;999.90;;;;;;;4.26;100.00;163531.53;4963276;28;20046;-69
2022/01/26 10:07:28;;;;;;;1999.90;999.90;;;;;;;3.71;100.00;163386.25;4961620;28;20042;-69
2022/01/26 10:10:33;;;;;;;1999.90;999.90;;;;;;;3.83;100.00;163417.78;4962830;28;20058;-69
2022/01/26 10:15:43;;;;;;;1999.90;999.90;;;;;;;4.02;100.00;163468.47;4961979;28;20380;-70
2022/01/26 10:18:14;;;;;;;1999.90;999.90;;;;;;;3.99;100.00;163460.25;4962372;28;20082;-69
2022/01/26 10:20:47;;;;;;;1999.90;999.90;;;;;;;3.93;100.00;163443.81;4962101;28;20051;-69
2022/01/26 10:23:39;;;;;;;1999.90;999.90;;;;;;;3.92;100.00;163442.44;4962269;28;20047;-69
2022/01/26 10:26:23;;;;;;;1999.90;999.90;;;;;;;4.10;100.00;163490.44;4957712;28;20058;-69
2022/01/26 10:28:54;;;;;;;1999.90;999.90;;;;;;;3.93;100.00;163443.81;4961456;28;20055;-68
2022/01/26 10:31:28;;;;;;;1999.90;999.90;;;;;;;4.07;100.00;163482.22;4970810;28;20063;-69
2022/01/26 10:34:13;;;;;;;1999.90;999.90;;;;;;;4.31;100.00;163546.66;4972233;28;20050;-69
2022/01/26 10:36:51;;;;;;;1999.90;999.90;;;;;;;4.46;100.00;163585.06;4972431;28;20055;-69
2022/01/26 10:39:26;;;;;;;1999.90;999.90;;;;;;;4.54;100.00;163608.38;4972581;28;20050;-69
2022/01/26 10:41:56;;;;;;;1999.90;999.90;;;;;;;4.46;100.00;163586.41;4971722;28;20054;-69
2022/01/26 10:44:42;;;;;;;1999.90;999.90;;;;;;;4.23;100.00;163526.09;4972890;28;20051;-69
2022/01/26 10:47:09;;;;;;;1999.90;999.90;;;;;;;4.29;100.00;163541.19;4971159;28;20774;-69
2022/01/26 10:52:23;;;;;;;1999.90;999.90;;;;;;;3.92;100.00;163441.09;4970798;28;20391;-69
2022/01/26 10:54:50;;;;;;;1999.90;999.90;;;;;;;3.78;100.00;163405.44;4970932;28;20051;-69
2022/01/26 10:57:17;;;;;;;1999.90;999.90;;;;;;;4.08;100.00;163484.97;4970590;28;20325;-69
2022/01/26 10:59:46;;;;;;;1999.90;999.90;;;;;;;4.61;100.00;163624.84;4972141;28;20081;-69
2022/01/26 11:02:19;;;;;;;1999.90;999.90;;;;;;;4.45;100.00;163582.31;4971620;28;20055;-69
2022/01/26 11:04:46;;;;;;;1999.90;999.90;;;;;;;4.35;100.00;163557.63;4970650;28;20101;-69
2022/01/26 11:07:14;;;;;;;1999.90;999.90;;;;;;;4.05;100.00;163476.75;4972287;28;20059;-69
2022/01/26 11:09:44;;;;;;;1999.90;999.90;;;;;;;4.06;100.00;163479.44;4970014;28;20502;-69
2022/01/26 11:12:13;;;;;;;1999.90;999.90;;;;;;;3.23;100.00;163257.38;4969369;28;20059;-70
2022/01/26 11:14:49;;;;;;;1999.90;999.90;;;;;;;3.04;100.00;163208.06;4969804;28;20101;-69
2022/01/26 11:17:34;;;;;;;1999.90;999.90;;;;;;;3.36;100.00;163293.00;4969085;28;20380;-69
2022/01/26 11:20:13;;;;;;;1999.90;999.90;;;;;;;3.37;100.00;163294.41;4969189;28;20466;-69
2022/01/26 11:22:52;;;;;;;1999.90;999.90;;;;;;;3.69;100.00;163382.13;4969050;28;20047;-70
2022/01/26 11:25:21;;;;;;;1999.90;999.90;;;;;;;3.46;100.00;163320.44;4969109;28;20129;-70
2022/01/26 11:27:48;;;;;;;1999.90;999.90;;;;;;;3.61;100.00;163360.19;4968044;28;20101;-69
2022/01/26 11:30:30;;;;;;;1999.90;999.90;;;;;;;3.50;100.00;163331.41;4968682;28;20055;-69
2022/01/26 11:32:58;;;;;;;;;;;;;;;3.42;100.00;163309.47;4969761;28;20043;-69
2022/01/26 11:35:28;;;;;;;1999.90;999.90;;;;;;;3.49;100.00;163328.66;4968493;28;20373;-69
2022/01/26 11:38:15;;;;;;;1999.90;999.90;;;;;;;3.68;100.00;163378.03;4968651;28;20098;-69
2022/01/26 11:46:37;;;;;;;1999.90;999.90;;;;;;;3.75;100.00;163397.22;4962404;28;20050;-70
2022/01/26 11:49:08;;;;;;;1999.90;999.90;;;;;;;3.32;100.00;163283.44;4969314;28;20047;-69
2022/01/26 11:51:46;;;;;;;1999.90;999.90;;;;;;;3.72;100.00;163388.97;4968738;28;20126;-69
2022/01/26 11:54:21;;;;;;;1999.90;999.90;;;;;;;3.40;100.00;163304.00;4967447;28;20132;-69
2022/01/26 11:57:09;;;;;;;1999.90;999.90;;;;;;;3.68;100.00;163378.03;4970315;28;20105;-70
2022/01/26 11:59:43;;;;;;;1999.90;999.90;;;;;;;4.10;100.00;163490.44;4970329;28;20055;-70
2022/01/26 12:02:29;;;;;;;1999.90;999.90;;;;;;;3.82;100.00;163415.03;4968384;28;20050;-69
2022/01/26 12:05:02;;;;;;;1999.90;999.90;;;;;;;4.03;100.00;163471.22;4965317;28;20050;-70
2022/01/26 12:07:29;;;;;;;1999.90;999.90;;;;;;;3.72;100.00;163388.97;4969108;28;20050;-69
2022/01/26 12:09:56;;;;;;;1999.90;999.90;;;;;;;3.41;100.00;163305.34;4967890;28;20054;-70
2022/01/26 12:12:24;;;;;;;1999.90;999.90;;;;;;;3.52;100.00;163336.88;4967920;28;20046;-69
2022/01/26 12:15:04;;;;;;;1999.90;999.90;;;;;;;4.23;100.00;163524.72;4969196;28;20132;-69
2022/01/26 12:17:36;;;;;;;1999.90;999.90;;;;;;;4.45;100.00;163583.72;4969756;28;20046;-70
2022/01/26 12:34:43;;;;;;;1999.90;999.90;;;;;;;4.72;100.00;163655.03;4969021;28;20051;-70
2022/01/26 12:45:24;;;;;;;1999.90;999.90;;;;;;;4.25;100.00;163528.84;4968797;28;20113;-71
2022/01/26 12:47:54;;;;;;;1999.90;999.90;;;;;;;4.87;100.00;163694.81;4969538;28;20055;-71